createdAt,value
2023-05-13T00:03:28.704Z,99177.94
2023-05-13T00:08:30.722Z,99177.73
2023-05-13T00:13:32.502Z,99177.69
2023-05-13T00:18:34.322Z,99180.39
2023-05-13T00:23:36.071Z,99177.67
2023-05-13T00:28:37.698Z,99176.68
2023-05-13T00:33:39.630Z,99175.81
2023-05-13T00:38:43.867Z,99179.91
2023-05-13T00:43:45.672Z,99181.86
2023-05-13T00:48:47.688Z,99184.27
2023-05-13T00:53:51.544Z,99184.75
2023-05-13T00:58:53.253Z,99188.85
2023-05-13T01:04:24.575Z,99188.55
2023-05-13T01:09:40.854Z,99190.40
2023-05-13T01:14:59.362Z,99194.87
2023-05-13T01:20:04.545Z,99197.45
2023-05-13T01:25:06.782Z,99200.12
2023-05-13T01:30:10.764Z,99200.48
2023-05-13T01:35:15.160Z,99201.20
2023-05-13T01:40:31.929Z,99198.80
2023-05-13T01:45:37.484Z,99202.39
2023-05-13T01:50:39.454Z,99203.04
2023-05-13T01:55:41.653Z,99201.10
2023-05-13T02:00:44.433Z,99201.70
2023-05-13T02:05:48.698Z,99202.47
2023-05-13T02:10:57.857Z,99204.31
2023-05-13T02:15:59.884Z,99206.71
2023-05-13T02:21:01.712Z,99210.15
2023-05-13T02:26:03.566Z,99207.58
2023-05-13T02:31:05.384Z,99208.92
2023-05-13T02:36:07.748Z,99204.80
2023-05-13T02:41:09.872Z,99204.37
2023-05-13T02:46:11.668Z,99204.14
2023-05-13T02:51:13.542Z,99209.54
2023-05-13T02:56:16.967Z,99211.70
2023-05-13T03:01:18.890Z,99219.85
2023-05-13T03:06:21.035Z,99220.36
2023-05-13T03:11:22.821Z,99221.07
2023-05-13T03:16:24.815Z,99221.13
2023-05-13T03:21:27.001Z,99219.37
2023-05-13T03:26:28.722Z,99214.19
2023-05-13T03:31:32.087Z,99220.14
2023-05-13T03:36:34.710Z,99229.52
2023-05-13T03:41:36.877Z,99230.05
2023-05-13T03:46:38.655Z,99236.24
2023-05-13T03:51:40.772Z,99238.48
2023-05-13T03:56:42.940Z,99238.67
2023-05-13T04:01:44.696Z,99250.48
2023-05-13T04:06:46.643Z,99252.88
2023-05-13T04:11:48.277Z,99254.61
2023-05-13T04:16:51.247Z,99257.36
2023-05-13T04:21:52.951Z,99261.31
2023-05-13T04:26:54.611Z,99265.24
2023-05-13T04:31:56.746Z,99272.30
2023-05-13T04:36:58.499Z,99278.44
2023-05-13T04:42:00.348Z,99282.23
2023-05-13T04:47:02.633Z,99288.33
2023-05-13T04:52:05.107Z,99294.36
2023-05-13T04:57:07.461Z,99296.86
2023-05-13T05:02:09.521Z,99296.66
2023-05-13T05:07:11.443Z,99296.95
2023-05-13T05:12:13.818Z,99300.29
2023-05-13T05:17:16.383Z,99300.71
2023-05-13T05:22:18.513Z,99309.52
2023-05-13T05:27:20.632Z,99316.30
2023-05-13T05:32:23.385Z,99313.11
2023-05-13T05:37:25.298Z,99316.62
2023-05-13T05:42:27.180Z,99317.03
2023-05-13T05:47:29.208Z,99316.34
2023-05-13T05:52:31.615Z,99316.06
2023-05-13T05:57:33.681Z,99317.63
2023-05-13T06:02:36.231Z,99314.36
2023-05-13T06:07:38.624Z,99318.83
2023-05-13T06:12:41.809Z,99317.23
2023-05-13T06:17:45.742Z,99328.09
2023-05-13T06:22:48.283Z,99329.67
2023-05-13T06:27:50.326Z,99330.02
2023-05-13T06:33:01.753Z,99333.91
2023-05-13T06:38:05.200Z,99334.09
2023-05-13T06:43:07.728Z,99329.26
2023-05-13T06:48:13.587Z,99328.62
2023-05-13T06:53:15.579Z,99334.77
2023-05-13T06:58:17.767Z,99328.82
2023-05-13T07:03:19.491Z,99325.56
2023-05-13T07:08:21.668Z,99323.94
2023-05-13T07:13:23.379Z,99318.81
2023-05-13T07:18:25.126Z,99311.16
2023-05-13T07:23:27.004Z,99309.27
2023-05-13T07:28:28.698Z,99309.39
2023-05-13T07:33:30.495Z,99302.94
2023-05-13T07:38:32.479Z,99298.45
2023-05-13T07:43:35.052Z,99300.98
2023-05-13T07:48:36.861Z,99297.96
2023-05-13T07:53:38.822Z,99295.02
2023-05-13T07:58:40.930Z,99289.42
2023-05-13T08:03:42.729Z,99285.66
2023-05-13T08:08:44.547Z,99282.14
2023-05-13T08:13:46.428Z,99287.14
2023-05-13T08:18:48.361Z,99287.05
2023-05-13T08:24:04.123Z,99284.25
2023-05-13T08:29:05.791Z,99286.69
2023-05-13T08:34:07.602Z,99293.86
2023-05-13T08:39:09.737Z,99297.78
2023-05-13T08:44:13.537Z,99296.27
2023-05-13T08:49:15.594Z,99299.27
2023-05-13T08:54:17.794Z,99295.88
2023-05-13T08:59:19.451Z,99292.50
2023-05-13T09:04:21.436Z,99287.22
2023-05-13T09:09:23.733Z,99293.38
2023-05-13T09:14:32.620Z,99295.19
2023-05-13T09:19:36.301Z,99297.42
2023-05-13T09:24:38.083Z,99292.72
2023-05-13T09:29:39.826Z,99293.02
2023-05-13T09:34:47.910Z,99288.11
2023-05-13T09:39:52.441Z,99285.48
2023-05-13T09:44:55.167Z,99282.89
2023-05-13T09:49:57.791Z,99282.69
2023-05-13T09:55:00.052Z,99279.95
2023-05-13T10:00:08.252Z,99282.81
2023-05-13T10:05:13.403Z,99278.41
2023-05-13T10:10:15.262Z,99276.59
2023-05-13T10:15:17.548Z,99276.67
2023-05-13T10:20:19.674Z,99276.33
2023-05-13T10:25:22.692Z,99270.00
2023-05-13T10:30:26.602Z,99262.13
2023-05-13T10:35:42.794Z,99268.73
2023-05-13T10:41:04.145Z,99269.15
2023-05-13T10:46:13.130Z,99268.61
2023-05-13T10:51:16.360Z,99277.50
2023-05-13T10:56:26.059Z,99266.27
2023-05-13T11:01:43.935Z,99262.45
2023-05-13T11:06:48.409Z,99267.19
2023-05-13T11:11:54.794Z,99269.09
2023-05-13T11:17:02.528Z,99269.02
2023-05-13T11:22:19.466Z,99271.91
2023-05-13T11:27:21.578Z,99274.04
2023-05-13T11:32:53.671Z,99270.39
2023-05-13T11:37:58.369Z,99267.66
2023-05-13T11:43:02.036Z,99270.76
2023-05-13T11:48:22.142Z,99263.27
2023-05-13T11:53:23.921Z,99265.76
2023-05-13T11:58:25.826Z,99262.84
2023-05-13T12:03:28.094Z,99271.17
2023-05-13T12:08:30.176Z,99273.59
2023-05-13T12:13:32.103Z,99273.55
2023-05-13T12:18:34.594Z,99275.23
2023-05-13T12:23:40.920Z,99279.67
2023-05-13T12:28:42.806Z,99276.75
2023-05-13T12:33:46.833Z,99277.20
2023-05-13T12:39:05.241Z,99277.80
2023-05-13T12:44:15.018Z,99277.09
2023-05-13T12:49:16.693Z,99277.17
2023-05-13T12:54:18.605Z,99275.48
2023-05-13T12:59:20.242Z,99281.16
2023-05-13T13:04:21.906Z,99278.98
2023-05-13T13:09:23.694Z,99277.15
2023-05-13T13:14:26.176Z,99275.85
2023-05-13T13:19:28.157Z,99274.50
2023-05-13T13:24:29.801Z,99268.73
2023-05-13T13:29:31.461Z,99267.80
2023-05-13T13:34:33.187Z,99269.98
2023-05-13T13:39:35.026Z,99267.32
2023-05-13T13:44:38.415Z,99266.80
2023-05-13T13:49:40.413Z,99265.77
2023-05-13T13:54:42.110Z,99263.19
2023-05-13T13:59:43.783Z,99261.20
2023-05-13T14:04:46.492Z,99259.77
2023-05-13T14:09:49.835Z,99255.15
2023-05-13T14:14:51.611Z,99256.64
2023-05-13T14:19:55.539Z,99255.94
2023-05-13T14:24:58.857Z,99256.54
2023-05-13T14:30:00.664Z,99259.70
2023-05-13T14:35:02.616Z,99263.34
2023-05-13T14:40:05.025Z,99261.30
2023-05-13T14:45:07.652Z,99255.20
2023-05-13T14:50:09.927Z,99258.13
2023-05-13T14:55:12.067Z,99254.70
2023-05-13T15:00:14.632Z,99262.81
2023-05-13T15:05:16.360Z,99258.55
2023-05-13T15:10:18.210Z,99258.95
2023-05-13T15:15:19.940Z,99258.05
2023-05-13T15:20:22.262Z,99256.05
2023-05-13T15:25:24.229Z,99258.30
2023-05-13T15:30:25.934Z,99262.36
2023-05-13T15:35:27.677Z,99261.53
2023-05-13T15:40:29.537Z,99261.22
2023-05-13T15:45:31.218Z,99256.38
2023-05-13T15:50:33.803Z,99253.04
2023-05-13T15:55:37.457Z,99246.96
2023-05-13T16:00:39.112Z,99250.32
2023-05-13T16:05:41.021Z,99248.54
2023-05-13T16:10:42.969Z,99250.98
2023-05-13T16:15:44.639Z,99247.19
2023-05-13T16:20:46.422Z,99244.88
2023-05-13T16:25:48.136Z,99244.77
2023-05-13T16:30:49.773Z,99240.48
2023-05-13T16:35:51.559Z,99239.10
2023-05-13T16:40:53.237Z,99234.75
2023-05-13T16:45:54.947Z,99229.13
2023-05-13T16:50:56.929Z,99227.68
2023-05-13T16:55:58.659Z,99228.83
2023-05-13T17:01:00.981Z,99224.92
2023-05-13T17:06:03.240Z,99226.79
2023-05-13T17:11:05.113Z,99232.48
2023-05-13T17:16:07.401Z,99232.94
2023-05-13T17:21:09.610Z,99231.90
2023-05-13T17:26:11.561Z,99229.63
2023-05-13T17:31:13.284Z,99235.16
2023-05-13T17:36:15.521Z,99233.80
2023-05-13T17:41:17.281Z,99235.91
2023-05-13T17:46:18.948Z,99236.47
2023-05-13T17:51:20.809Z,99242.60
2023-05-13T17:56:22.461Z,99245.06
2023-05-13T18:01:24.188Z,99250.83
2023-05-13T18:06:25.874Z,99254.16
2023-05-13T18:11:27.507Z,99254.73
2023-05-13T18:16:29.209Z,99255.27
2023-05-13T18:21:31.680Z,99256.98
2023-05-13T18:26:33.912Z,99264.52
2023-05-13T18:31:35.942Z,99268.75
2023-05-13T18:36:37.711Z,99279.48
2023-05-13T18:41:39.354Z,99281.91
2023-05-13T18:46:41.202Z,99281.91
2023-05-13T18:51:42.894Z,99282.60
2023-05-13T18:56:44.607Z,99286.00
2023-05-13T19:01:46.532Z,99289.40
2023-05-13T19:06:48.510Z,99296.20
2023-05-13T19:11:50.209Z,99296.08
2023-05-13T19:16:51.893Z,99295.61
2023-05-13T19:21:53.792Z,99292.05
2023-05-13T19:26:56.547Z,99296.16
2023-05-13T19:31:58.256Z,99303.19
2023-05-13T19:37:00.103Z,99308.48
2023-05-13T19:42:01.733Z,99312.90
2023-05-13T19:47:03.512Z,99314.96
2023-05-13T19:52:06.533Z,99310.64
2023-05-13T19:57:08.362Z,99310.23
2023-05-13T20:02:10.302Z,99306.27
2023-05-13T20:07:12.402Z,99305.39
2023-05-13T20:12:14.071Z,99302.31
2023-05-13T20:17:28.390Z,99299.21
2023-05-13T20:22:30.125Z,99294.42
2023-05-13T20:27:31.800Z,99293.11
2023-05-13T20:32:33.894Z,99289.84
2023-05-13T20:37:35.984Z,99287.65
2023-05-13T20:42:37.674Z,99286.13
2023-05-13T20:47:39.312Z,99281.33
2023-05-13T20:52:41.466Z,99280.16
2023-05-13T20:57:44.307Z,99283.94
2023-05-13T21:02:46.573Z,99283.66
2023-05-13T21:07:50.151Z,99283.27
2023-05-13T21:12:53.648Z,99280.98
2023-05-13T21:17:55.593Z,99280.20
2023-05-13T21:22:57.329Z,99280.91
2023-05-13T21:27:59.293Z,99282.09
2023-05-13T21:33:01.218Z,99288.13
2023-05-13T21:38:11.361Z,99287.14
2023-05-13T21:43:14.741Z,99284.27
2023-05-13T21:48:36.507Z,99279.88
2023-05-13T21:53:43.385Z,99280.46
2023-05-13T21:58:45.075Z,99277.90
2023-05-13T22:03:46.703Z,99269.04
2023-05-13T22:08:48.432Z,99271.08
2023-05-13T22:13:54.047Z,99275.46
2023-05-13T22:19:00.417Z,99277.17
2023-05-13T22:24:05.096Z,99273.70
2023-05-13T22:29:06.913Z,99269.19
2023-05-13T22:34:08.610Z,99264.84
2023-05-13T22:39:12.192Z,99265.67
2023-05-13T22:44:14.203Z,99264.17
2023-05-13T22:49:15.911Z,99267.77
2023-05-13T22:54:17.747Z,99273.25
2023-05-13T22:59:19.443Z,99275.75
2023-05-13T23:04:21.270Z,99274.05
2023-05-13T23:09:23.811Z,99268.17
2023-05-13T23:14:30.275Z,99257.55
2023-05-13T23:19:32.016Z,99255.94
2023-05-13T23:24:33.735Z,99253.20
2023-05-13T23:29:36.363Z,99248.33
2023-05-13T23:34:39.513Z,99243.77
2023-05-13T23:39:42.389Z,99238.82
2023-05-13T23:44:44.128Z,99240.84
2023-05-13T23:50:06.756Z,99241.13
2023-05-13T23:55:08.464Z,99238.02
